sensor_id;sensor_type;location;lat;lon;timestamp;P1;durP1;ratioP1;P2;durP2;ratioP2
21567;SDS011;10944;42.590;12.630;2023-04-15T00:00:14;3.90;;;1.20;;
21567;SDS011;10944;42.590;12.630;2023-04-15T00:02:41;4.97;;;1.30;;
21567;SDS011;10944;42.590;12.630;2023-04-15T00:05:06;6.55;;;1.50;;
21567;SDS011;10944;42.590;12.630;2023-04-15T00:07:32;4.50;;;1.20;;
21567;SDS011;10944;42.590;12.630;2023-04-15T00:09:58;7.47;;;1.40;;
21567;SDS011;10944;42.590;12.630;2023-04-15T00:12:27;4.15;;;1.20;;
21567;SDS011;10944;42.590;12.630;2023-04-15T00:14:53;4.25;;;1.20;;
21567;SDS011;10944;42.590;12.630;2023-04-15T00:17:19;6.37;;;1.47;;
21567;SDS011;10944;42.590;12.630;2023-04-15T00:19:45;3.85;;;1.27;;
21567;SDS011;10944;42.590;12.630;2023-04-15T00:22:11;8.07;;;1.40;;
21567;SDS011;10944;42.590;12.630;2023-04-15T00:24:37;7.60;;;1.30;;
21567;SDS011;10944;42.590;12.630;2023-04-15T00:27:03;4.20;;;1.25;;
21567;SDS011;10944;42.590;12.630;2023-04-15T00:29:29;5.38;;;1.38;;
21567;SDS011;10944;42.590;12.630;2023-04-15T00:31:55;3.63;;;1.30;;
21567;SDS011;10944;42.590;12.630;2023-04-15T00:34:21;5.60;;;1.80;;
21567;SDS011;10944;42.590;12.630;2023-04-15T00:36:48;5.63;;;1.40;;
21567;SDS011;10944;42.590;12.630;2023-04-15T00:39:14;6.82;;;1.65;;
21567;SDS011;10944;42.590;12.630;2023-04-15T00:41:43;4.70;;;1.20;;
21567;SDS011;10944;42.590;12.630;2023-04-15T00:44:10;8.40;;;1.50;;
21567;SDS011;10944;42.590;12.630;2023-04-15T00:46:36;5.43;;;1.35;;
21567;SDS011;10944;42.590;12.630;2023-04-15T00:49:03;5.50;;;1.38;;
21567;SDS011;10944;42.590;12.630;2023-04-15T00:51:30;5.32;;;1.40;;
21567;SDS011;10944;42.590;12.630;2023-04-15T00:53:57;6.85;;;1.25;;
21567;SDS011;10944;42.590;12.630;2023-04-15T00:56:24;4.72;;;1.20;;
21567;SDS011;10944;42.590;12.630;2023-04-15T00:58:51;4.30;;;1.30;;
21567;SDS011;10944;42.590;12.630;2023-04-15T01:01:19;7.95;;;1.30;;
21567;SDS011;10944;42.590;12.630;2023-04-15T01:03:47;3.95;;;1.25;;
21567;SDS011;10944;42.590;12.630;2023-04-15T01:06:14;6.18;;;1.38;;
21567;SDS011;10944;42.590;12.630;2023-04-15T01:08:40;4.40;;;1.40;;
21567;SDS011;10944;42.590;12.630;2023-04-15T01:11:06;3.20;;;1.20;;
21567;SDS011;10944;42.590;12.630;2023-04-15T01:13:33;5.20;;;1.30;;
21567;SDS011;10944;42.590;12.630;2023-04-15T01:16:00;7.03;;;1.30;;
21567;SDS011;10944;42.590;12.630;2023-04-15T01:18:27;5.60;;;1.40;;
21567;SDS011;10944;42.590;12.630;2023-04-15T01:20:53;6.55;;;1.40;;
21567;SDS011;10944;42.590;12.630;2023-04-15T01:23:19;6.53;;;1.33;;
21567;SDS011;10944;42.590;12.630;2023-04-15T01:25:47;6.20;;;1.17;;
21567;SDS011;10944;42.590;12.630;2023-04-15T01:28:14;6.13;;;1.30;;
21567;SDS011;10944;42.590;12.630;2023-04-15T01:30:40;5.40;;;1.30;;
21567;SDS011;10944;42.590;12.630;2023-04-15T01:33:06;5.05;;;1.20;;
21567;SDS011;10944;42.590;12.630;2023-04-15T01:35:31;7.20;;;1.40;;
21567;SDS011;10944;42.590;12.630;2023-04-15T01:38:00;8.20;;;1.80;;
21567;SDS011;10944;42.590;12.630;2023-04-15T01:40:31;7.85;;;1.40;;
21567;SDS011;10944;42.590;12.630;2023-04-15T01:42:57;6.53;;;1.40;;
21567;SDS011;10944;42.590;12.630;2023-04-15T01:45:23;6.38;;;1.45;;
21567;SDS011;10944;42.590;12.630;2023-04-15T01:47:49;4.57;;;1.23;;
21567;SDS011;10944;42.590;12.630;2023-04-15T01:50:15;8.82;;;1.40;;
21567;SDS011;10944;42.590;12.630;2023-04-15T01:52:41;3.55;;;1.10;;
21567;SDS011;10944;42.590;12.630;2023-04-15T01:55:07;5.70;;;1.40;;
21567;SDS011;10944;42.590;12.630;2023-04-15T01:57:33;7.47;;;1.27;;
21567;SDS011;10944;42.590;12.630;2023-04-15T01:59:59;6.18;;;1.30;;
21567;SDS011;10944;42.590;12.630;2023-04-15T02:02:25;5.45;;;1.27;;
21567;SDS011;10944;42.590;12.630;2023-04-15T02:04:50;5.80;;;1.30;;
21567;SDS011;10944;42.590;12.630;2023-04-15T02:07:17;8.20;;;1.40;;
21567;SDS011;10944;42.590;12.630;2023-04-15T02:09:43;5.00;;;1.20;;
21567;SDS011;10944;42.590;12.630;2023-04-15T02:12:10;6.95;;;1.15;;
21567;SDS011;10944;42.590;12.630;2023-04-15T02:14:37;6.65;;;1.30;;
21567;SDS011;10944;42.590;12.630;2023-04-15T02:17:03;7.35;;;1.65;;
21567;SDS011;10944;42.590;12.630;2023-04-15T02:19:32;6.32;;;1.27;;
21567;SDS011;10944;42.590;12.630;2023-04-15T02:21:59;7.05;;;1.13;;
21567;SDS011;10944;42.590;12.630;2023-04-15T02:24:26;6.13;;;1.10;;
21567;SDS011;10944;42.590;12.630;2023-04-15T02:26:53;8.10;;;1.40;;
21567;SDS011;10944;42.590;12.630;2023-04-15T02:29:18;7.13;;;1.40;;
21567;SDS011;10944;42.590;12.630;2023-04-15T02:31:44;8.63;;;1.77;;
21567;SDS011;10944;42.590;12.630;2023-04-15T02:34:10;8.68;;;1.80;;
21567;SDS011;10944;42.590;12.630;2023-04-15T02:36:35;9.15;;;1.10;;
21567;SDS011;10944;42.590;12.630;2023-04-15T02:39:01;12.38;;;1.30;;
21567;SDS011;10944;42.590;12.630;2023-04-15T02:41:28;10.65;;;1.40;;
21567;SDS011;10944;42.590;12.630;2023-04-15T02:43:54;6.38;;;1.30;;
21567;SDS011;10944;42.590;12.630;2023-04-15T02:46:20;4.75;;;1.58;;
21567;SDS011;10944;42.590;12.630;2023-04-15T02:48:47;11.05;;;1.88;;
21567;SDS011;10944;42.590;12.630;2023-04-15T02:51:17;6.85;;;1.48;;
21567;SDS011;10944;42.590;12.630;2023-04-15T02:53:45;4.85;;;1.38;;
21567;SDS011;10944;42.590;12.630;2023-04-15T02:56:11;4.18;;;1.10;;
21567;SDS011;10944;42.590;12.630;2023-04-15T02:58:39;7.80;;;1.48;;
21567;SDS011;10944;42.590;12.630;2023-04-15T03:01:06;7.25;;;1.40;;
21567;SDS011;10944;42.590;12.630;2023-04-15T03:03:33;8.57;;;1.45;;
21567;SDS011;10944;42.590;12.630;2023-04-15T03:05:59;8.23;;;1.35;;
21567;SDS011;10944;42.590;12.630;2023-04-15T03:08:24;5.05;;;1.15;;
21567;SDS011;10944;42.590;12.630;2023-04-15T03:10:50;9.15;;;1.33;;
21567;SDS011;10944;42.590;12.630;2023-04-15T03:13:17;7.70;;;1.20;;
21567;SDS011;10944;42.590;12.630;2023-04-15T03:15:45;6.00;;;1.65;;
21567;SDS011;10944;42.590;12.630;2023-04-15T03:18:11;6.50;;;1.50;;
21567;SDS011;10944;42.590;12.630;2023-04-15T03:20:37;6.13;;;1.20;;
21567;SDS011;10944;42.590;12.630;2023-04-15T03:23:02;9.25;;;1.52;;
21567;SDS011;10944;42.590;12.630;2023-04-15T03:25:28;8.02;;;1.30;;
21567;SDS011;10944;42.590;12.630;2023-04-15T03:27:54;7.60;;;1.20;;
21567;SDS011;10944;42.590;12.630;2023-04-15T03:30:19;7.05;;;1.02;;
21567;SDS011;10944;42.590;12.630;2023-04-15T03:32:45;11.02;;;1.50;;
21567;SDS011;10944;42.590;12.630;2023-04-15T03:35:11;12.73;;;1.45;;
21567;SDS011;10944;42.590;12.630;2023-04-15T03:37:37;9.13;;;1.50;;
21567;SDS011;10944;42.590;12.630;2023-04-15T03:40:02;10.23;;;1.75;;
21567;SDS011;10944;42.590;12.630;2023-04-15T03:42:28;8.27;;;1.50;;
21567;SDS011;10944;42.590;12.630;2023-04-15T03:44:54;11.40;;;1.88;;
21567;SDS011;10944;42.590;12.630;2023-04-15T03:47:20;7.95;;;1.33;;
21567;SDS011;10944;42.590;12.630;2023-04-15T03:49:45;10.90;;;1.40;;
21567;SDS011;10944;42.590;12.630;2023-04-15T03:52:11;13.23;;;1.67;;
21567;SDS011;10944;42.590;12.630;2023-04-15T03:54:37;7.20;;;1.27;;
21567;SDS011;10944;42.590;12.630;2023-04-15T03:57:02;7.80;;;1.52;;
21567;SDS011;10944;42.590;12.630;2023-04-15T03:59:28;6.35;;;1.40;;
21567;SDS011;10944;42.590;12.630;2023-04-15T04:01:54;9.05;;;1.35;;
21567;SDS011;10944;42.590;12.630;2023-04-15T04:04:20;8.68;;;1.38;;
21567;SDS011;10944;42.590;12.630;2023-04-15T04:06:45;10.95;;;1.40;;
21567;SDS011;10944;42.590;12.630;2023-04-15T04:09:11;7.97;;;1.27;;
21567;SDS011;10944;42.590;12.630;2023-04-15T04:11:37;10.60;;;1.73;;
21567;SDS011;10944;42.590;12.630;2023-04-15T04:14:03;6.55;;;1.25;;
21567;SDS011;10944;42.590;12.630;2023-04-15T04:16:28;14.20;;;1.63;;
21567;SDS011;10944;42.590;12.630;2023-04-15T04:18:54;9.88;;;1.58;;
21567;SDS011;10944;42.590;12.630;2023-04-15T04:21:20;6.70;;;1.20;;
21567;SDS011;10944;42.590;12.630;2023-04-15T04:23:46;7.10;;;1.52;;
21567;SDS011;10944;42.590;12.630;2023-04-15T04:26:11;6.35;;;1.20;;
21567;SDS011;10944;42.590;12.630;2023-04-15T04:28:37;12.23;;;1.58;;
21567;SDS011;10944;42.590;12.630;2023-04-15T04:31:06;10.60;;;1.80;;
21567;SDS011;10944;42.590;12.630;2023-04-15T04:33:32;6.43;;;1.20;;
21567;SDS011;10944;42.590;12.630;2023-04-15T04:35:57;10.52;;;1.50;;
21567;SDS011;10944;42.590;12.630;2023-04-15T04:38:23;8.07;;;1.33;;
21567;SDS011;10944;42.590;12.630;2023-04-15T04:40:49;8.68;;;1.77;;
21567;SDS011;10944;42.590;12.630;2023-04-15T04:43:15;10.40;;;1.70;;
21567;SDS011;10944;42.590;12.630;2023-04-15T04:45:41;9.93;;;1.65;;
21567;SDS011;10944;42.590;12.630;2023-04-15T04:48:06;11.98;;;1.73;;
21567;SDS011;10944;42.590;12.630;2023-04-15T04:50:34;13.90;;;1.93;;
21567;SDS011;10944;42.590;12.630;2023-04-15T04:53:00;8.10;;;1.40;;
21567;SDS011;10944;42.590;12.630;2023-04-15T04:55:26;9.52;;;2.03;;
21567;SDS011;10944;42.590;12.630;2023-04-15T04:57:52;9.60;;;1.63;;
21567;SDS011;10944;42.590;12.630;2023-04-15T05:00:18;12.95;;;2.10;;
21567;SDS011;10944;42.590;12.630;2023-04-15T05:02:44;11.02;;;1.75;;
21567;SDS011;10944;42.590;12.630;2023-04-15T05:05:10;8.98;;;1.52;;
21567;SDS011;10944;42.590;12.630;2023-04-15T05:07:37;14.05;;;1.70;;
21567;SDS011;10944;42.590;12.630;2023-04-15T05:10:03;9.32;;;1.80;;
21567;SDS011;10944;42.590;12.630;2023-04-15T05:12:30;10.27;;;1.50;;
21567;SDS011;10944;42.590;12.630;2023-04-15T05:14:56;14.40;;;1.90;;
21567;SDS011;10944;42.590;12.630;2023-04-15T05:17:22;11.47;;;1.77;;
21567;SDS011;10944;42.590;12.630;2023-04-15T05:19:48;14.07;;;1.63;;
21567;SDS011;10944;42.590;12.630;2023-04-15T05:22:13;12.03;;;2.00;;
21567;SDS011;10944;42.590;12.630;2023-04-15T05:24:39;9.87;;;1.57;;
21567;SDS011;10944;42.590;12.630;2023-04-15T05:27:05;11.00;;;1.67;;
21567;SDS011;10944;42.590;12.630;2023-04-15T05:29:32;9.83;;;1.50;;
21567;SDS011;10944;42.590;12.630;2023-04-15T05:31:58;10.63;;;1.90;;
21567;SDS011;10944;42.590;12.630;2023-04-15T05:34:24;7.63;;;1.25;;
21567;SDS011;10944;42.590;12.630;2023-04-15T05:36:50;8.40;;;1.27;;
21567;SDS011;10944;42.590;12.630;2023-04-15T05:39:16;9.02;;;1.50;;
21567;SDS011;10944;42.590;12.630;2023-04-15T05:41:42;12.20;;;2.50;;
21567;SDS011;10944;42.590;12.630;2023-04-15T05:44:08;7.13;;;1.47;;
21567;SDS011;10944;42.590;12.630;2023-04-15T05:46:34;10.20;;;1.63;;
21567;SDS011;10944;42.590;12.630;2023-04-15T05:48:59;10.80;;;1.83;;
21567;SDS011;10944;42.590;12.630;2023-04-15T05:51:25;10.43;;;1.60;;
21567;SDS011;10944;42.590;12.630;2023-04-15T05:53:51;11.40;;;1.30;;
21567;SDS011;10944;42.590;12.630;2023-04-15T05:56:17;6.37;;;1.40;;
21567;SDS011;10944;42.590;12.630;2023-04-15T05:58:44;11.87;;;1.43;;
21567;SDS011;10944;42.590;12.630;2023-04-15T06:01:10;8.75;;;1.60;;
21567;SDS011;10944;42.590;12.630;2023-04-15T06:03:36;8.77;;;1.50;;
21567;SDS011;10944;42.590;12.630;2023-04-15T06:06:02;4.85;;;1.50;;
21567;SDS011;10944;42.590;12.630;2023-04-15T06:08:28;9.65;;;1.90;;
21567;SDS011;10944;42.590;12.630;2023-04-15T06:10:54;7.77;;;1.50;;
21567;SDS011;10944;42.590;12.630;2023-04-15T06:13:20;8.83;;;1.53;;
21567;SDS011;10944;42.590;12.630;2023-04-15T06:15:46;8.83;;;1.40;;
21567;SDS011;10944;42.590;12.630;2023-04-15T06:18:12;7.37;;;1.50;;
21567;SDS011;10944;42.590;12.630;2023-04-15T06:20:37;9.82;;;1.90;;
21567;SDS011;10944;42.590;12.630;2023-04-15T06:23:03;5.93;;;1.52;;
21567;SDS011;10944;42.590;12.630;2023-04-15T06:25:29;8.38;;;1.42;;
21567;SDS011;10944;42.590;12.630;2023-04-15T06:27:55;6.65;;;1.08;;
21567;SDS011;10944;42.590;12.630;2023-04-15T06:30:20;7.10;;;1.30;;
21567;SDS011;10944;42.590;12.630;2023-04-15T06:32:46;8.80;;;1.52;;
21567;SDS011;10944;42.590;12.630;2023-04-15T06:35:12;4.73;;;1.00;;
21567;SDS011;10944;42.590;12.630;2023-04-15T06:37:38;6.03;;;1.20;;
21567;SDS011;10944;42.590;12.630;2023-04-15T06:40:04;4.40;;;1.05;;
21567;SDS011;10944;42.590;12.630;2023-04-15T06:42:30;3.85;;;1.00;;
21567;SDS011;10944;42.590;12.630;2023-04-15T06:44:56;7.68;;;1.15;;
21567;SDS011;10944;42.590;12.630;2023-04-15T06:47:22;6.13;;;1.00;;
21567;SDS011;10944;42.590;12.630;2023-04-15T06:49:47;5.60;;;0.98;;
21567;SDS011;10944;42.590;12.630;2023-04-15T06:52:13;7.13;;;1.45;;
21567;SDS011;10944;42.590;12.630;2023-04-15T06:54:40;5.50;;;1.00;;
21567;SDS011;10944;42.590;12.630;2023-04-15T06:57:06;5.72;;;1.00;;
21567;SDS011;10944;42.590;12.630;2023-04-15T06:59:33;6.45;;;1.10;;
21567;SDS011;10944;42.590;12.630;2023-04-15T07:01:59;4.63;;;0.70;;
21567;SDS011;10944;42.590;12.630;2023-04-15T07:04:25;5.82;;;1.00;;
21567;SDS011;10944;42.590;12.630;2023-04-15T07:06:52;7.72;;;0.90;;
21567;SDS011;10944;42.590;12.630;2023-04-15T07:09:20;5.70;;;0.88;;
21567;SDS011;10944;42.590;12.630;2023-04-15T07:11:49;3.83;;;0.70;;
21567;SDS011;10944;42.590;12.630;2023-04-15T07:14:15;6.25;;;1.13;;
21567;SDS011;10944;42.590;12.630;2023-04-15T07:16:41;3.58;;;0.75;;
21567;SDS011;10944;42.590;12.630;2023-04-15T07:19:07;3.97;;;0.77;;
21567;SDS011;10944;42.590;12.630;2023-04-15T07:21:32;3.42;;;0.80;;
21567;SDS011;10944;42.590;12.630;2023-04-15T07:23:58;6.20;;;0.93;;
21567;SDS011;10944;42.590;12.630;2023-04-15T07:26:24;4.50;;;0.80;;
21567;SDS011;10944;42.590;12.630;2023-04-15T07:28:49;3.95;;;0.80;;
21567;SDS011;10944;42.590;12.630;2023-04-15T07:31:15;5.13;;;0.90;;
21567;SDS011;10944;42.590;12.630;2023-04-15T07:33:41;8.13;;;0.83;;
21567;SDS011;10944;42.590;12.630;2023-04-15T07:36:07;4.25;;;0.80;;
21567;SDS011;10944;42.590;12.630;2023-04-15T07:38:33;4.18;;;0.90;;
21567;SDS011;10944;42.590;12.630;2023-04-15T07:40:59;7.22;;;1.00;;
21567;SDS011;10944;42.590;12.630;2023-04-15T07:43:24;6.83;;;0.93;;
21567;SDS011;10944;42.590;12.630;2023-04-15T07:45:50;5.43;;;1.00;;
21567;SDS011;10944;42.590;12.630;2023-04-15T07:48:17;4.80;;;1.00;;
21567;SDS011;10944;42.590;12.630;2023-04-15T07:50:42;3.97;;;0.70;;
21567;SDS011;10944;42.590;12.630;2023-04-15T07:53:08;6.13;;;0.90;;
21567;SDS011;10944;42.590;12.630;2023-04-15T07:55:34;5.75;;;1.05;;
21567;SDS011;10944;42.590;12.630;2023-04-15T07:57:59;4.38;;;0.82;;
21567;SDS011;10944;42.590;12.630;2023-04-15T08:00:25;4.33;;;1.10;;
21567;SDS011;10944;42.590;12.630;2023-04-15T08:02:51;8.18;;;1.05;;
21567;SDS011;10944;42.590;12.630;2023-04-15T08:05:17;6.35;;;1.45;;
21567;SDS011;10944;42.590;12.630;2023-04-15T08:07:43;5.67;;;1.10;;
21567;SDS011;10944;42.590;12.630;2023-04-15T08:10:09;5.22;;;1.00;;
21567;SDS011;10944;42.590;12.630;2023-04-15T08:12:36;7.00;;;1.08;;
21567;SDS011;10944;42.590;12.630;2023-04-15T08:15:02;6.18;;;0.98;;
21567;SDS011;10944;42.590;12.630;2023-04-15T08:17:28;4.95;;;1.08;;
21567;SDS011;10944;42.590;12.630;2023-04-15T08:19:54;4.80;;;1.00;;
21567;SDS011;10944;42.590;12.630;2023-04-15T08:22:20;5.93;;;1.17;;
21567;SDS011;10944;42.590;12.630;2023-04-15T08:24:45;6.15;;;1.23;;
21567;SDS011;10944;42.590;12.630;2023-04-15T08:27:11;3.78;;;0.90;;
21567;SDS011;10944;42.590;12.630;2023-04-15T08:29:37;5.05;;;1.00;;
21567;SDS011;10944;42.590;12.630;2023-04-15T08:32:03;5.00;;;0.85;;
21567;SDS011;10944;42.590;12.630;2023-04-15T08:34:29;5.40;;;1.10;;
21567;SDS011;10944;42.590;12.630;2023-04-15T08:36:55;8.10;;;1.48;;
21567;SDS011;10944;42.590;12.630;2023-04-15T08:39:21;7.15;;;1.40;;
21567;SDS011;10944;42.590;12.630;2023-04-15T08:41:47;6.25;;;1.08;;
21567;SDS011;10944;42.590;12.630;2023-04-15T08:44:20;4.93;;;1.02;;
21567;SDS011;10944;42.590;12.630;2023-04-15T08:46:50;7.22;;;1.30;;
21567;SDS011;10944;42.590;12.630;2023-04-15T08:49:16;5.93;;;1.10;;
21567;SDS011;10944;42.590;12.630;2023-04-15T08:51:43;5.65;;;1.30;;
21567;SDS011;10944;42.590;12.630;2023-04-15T08:54:09;5.53;;;1.45;;
21567;SDS011;10944;42.590;12.630;2023-04-15T08:56:35;6.75;;;1.75;;
21567;SDS011;10944;42.590;12.630;2023-04-15T08:59:03;6.30;;;1.67;;
21567;SDS011;10944;42.590;12.630;2023-04-15T09:01:29;6.03;;;1.20;;
21567;SDS011;10944;42.590;12.630;2023-04-15T09:03:56;6.13;;;1.30;;
21567;SDS011;10944;42.590;12.630;2023-04-15T09:06:24;6.43;;;1.20;;
21567;SDS011;10944;42.590;12.630;2023-04-15T09:08:50;4.13;;;1.20;;
21567;SDS011;10944;42.590;12.630;2023-04-15T09:11:16;6.20;;;1.10;;
21567;SDS011;10944;42.590;12.630;2023-04-15T09:13:43;7.47;;;1.17;;
21567;SDS011;10944;42.590;12.630;2023-04-15T09:16:09;4.57;;;1.03;;
21567;SDS011;10944;42.590;12.630;2023-04-15T09:18:35;4.67;;;1.10;;
21567;SDS011;10944;42.590;12.630;2023-04-15T09:21:12;4.67;;;1.10;;
21567;SDS011;10944;42.590;12.630;2023-04-15T09:23:40;2.57;;;1.10;;
21567;SDS011;10944;42.590;12.630;2023-04-15T09:26:34;4.33;;;1.10;;
21567;SDS011;10944;42.590;12.630;2023-04-15T09:29:02;3.07;;;1.00;;
21567;SDS011;10944;42.590;12.630;2023-04-15T09:31:33;3.23;;;1.17;;
21567;SDS011;10944;42.590;12.630;2023-04-15T09:33:59;2.50;;;0.80;;
21567;SDS011;10944;42.590;12.630;2023-04-15T09:36:25;3.45;;;0.88;;
21567;SDS011;10944;42.590;12.630;2023-04-15T09:38:58;2.10;;;0.70;;
21567;SDS011;10944;42.590;12.630;2023-04-15T09:41:24;3.63;;;1.10;;
21567;SDS011;10944;42.590;12.630;2023-04-15T09:43:51;1.70;;;0.60;;
21567;SDS011;10944;42.590;12.630;2023-04-15T09:46:17;1.08;;;0.60;;
21567;SDS011;10944;42.590;12.630;2023-04-15T09:48:43;2.93;;;0.70;;
21567;SDS011;10944;42.590;12.630;2023-04-15T09:51:09;2.17;;;0.83;;
21567;SDS011;10944;42.590;12.630;2023-04-15T09:53:35;3.00;;;0.80;;
21567;SDS011;10944;42.590;12.630;2023-04-15T09:56:02;2.50;;;0.60;;
21567;SDS011;10944;42.590;12.630;2023-04-15T09:58:29;1.50;;;0.57;;
21567;SDS011;10944;42.590;12.630;2023-04-15T10:00:56;2.60;;;0.50;;
21567;SDS011;10944;42.590;12.630;2023-04-15T10:03:27;2.80;;;0.63;;
21567;SDS011;10944;42.590;12.630;2023-04-15T10:05:56;1.80;;;0.43;;
21567;SDS011;10944;42.590;12.630;2023-04-15T10:08:24;2.17;;;0.60;;
21567;SDS011;10944;42.590;12.630;2023-04-15T10:10:52;1.23;;;0.40;;
21567;SDS011;10944;42.590;12.630;2023-04-15T10:13:23;1.70;;;0.50;;
21567;SDS011;10944;42.590;12.630;2023-04-15T10:15:50;1.27;;;0.40;;
21567;SDS011;10944;42.590;12.630;2023-04-15T10:18:21;1.67;;;0.50;;
21567;SDS011;10944;42.590;12.630;2023-04-15T10:20:49;2.40;;;0.63;;
21567;SDS011;10944;42.590;12.630;2023-04-15T10:23:15;1.40;;;0.50;;
21567;SDS011;10944;42.590;12.630;2023-04-15T10:25:43;1.50;;;0.60;;
21567;SDS011;10944;42.590;12.630;2023-04-15T10:28:10;2.97;;;0.77;;
21567;SDS011;10944;42.590;12.630;2023-04-15T10:30:36;1.63;;;0.60;;
21567;SDS011;10944;42.590;12.630;2023-04-15T10:33:03;1.80;;;0.60;;
21567;SDS011;10944;42.590;12.630;2023-04-15T10:35:30;2.63;;;0.70;;
21567;SDS011;10944;42.590;12.630;2023-04-15T10:37:57;1.37;;;0.60;;
21567;SDS011;10944;42.590;12.630;2023-04-15T10:40:30;0.80;;;0.50;;
21567;SDS011;10944;42.590;12.630;2023-04-15T10:43:00;1.83;;;0.70;;
21567;SDS011;10944;42.590;12.630;2023-04-15T10:45:36;0.97;;;0.50;;
21567;SDS011;10944;42.590;12.630;2023-04-15T10:48:02;2.03;;;0.63;;
21567;SDS011;10944;42.590;12.630;2023-04-15T10:50:31;1.80;;;0.57;;
21567;SDS011;10944;42.590;12.630;2023-04-15T10:52:58;1.10;;;0.57;;
21567;SDS011;10944;42.590;12.630;2023-04-15T10:55:32;0.63;;;0.50;;
21567;SDS011;10944;42.590;12.630;2023-04-15T10:57:59;1.10;;;0.50;;
21567;SDS011;10944;42.590;12.630;2023-04-15T11:00:27;1.30;;;0.60;;
21567;SDS011;10944;42.590;12.630;2023-04-15T11:02:58;1.63;;;0.60;;
21567;SDS011;10944;42.590;12.630;2023-04-15T11:08:13;1.70;;;0.53;;
21567;SDS011;10944;42.590;12.630;2023-04-15T11:13:15;3.10;;;0.60;;
21567;SDS011;10944;42.590;12.630;2023-04-15T11:15:45;2.90;;;0.83;;
21567;SDS011;10944;42.590;12.630;2023-04-15T11:18:16;1.83;;;0.73;;
21567;SDS011;10944;42.590;12.630;2023-04-15T11:20:47;1.77;;;0.60;;
21567;SDS011;10944;42.590;12.630;2023-04-15T11:23:27;1.97;;;0.80;;
21567;SDS011;10944;42.590;12.630;2023-04-15T11:25:58;2.50;;;0.73;;
21567;SDS011;10944;42.590;12.630;2023-04-15T11:28:25;2.03;;;0.60;;
21567;SDS011;10944;42.590;12.630;2023-04-15T11:30:52;0.98;;;0.50;;
21567;SDS011;10944;42.590;12.630;2023-04-15T11:33:19;1.83;;;0.50;;
21567;SDS011;10944;42.590;12.630;2023-04-15T11:35:47;1.38;;;0.50;;
21567;SDS011;10944;42.590;12.630;2023-04-15T11:38:13;1.67;;;0.75;;
21567;SDS011;10944;42.590;12.630;2023-04-15T11:40:40;1.85;;;0.80;;
21567;SDS011;10944;42.590;12.630;2023-04-15T11:43:10;1.95;;;0.73;;
21567;SDS011;10944;42.590;12.630;2023-04-15T11:45:56;1.48;;;0.75;;
21567;SDS011;10944;42.590;12.630;2023-04-15T11:48:25;1.08;;;0.50;;
21567;SDS011;10944;42.590;12.630;2023-04-15T11:50:56;1.33;;;0.60;;
21567;SDS011;10944;42.590;12.630;2023-04-15T11:56:17;1.35;;;0.60;;
21567;SDS011;10944;42.590;12.630;2023-04-15T11:58:45;1.17;;;0.60;;
21567;SDS011;10944;42.590;12.630;2023-04-15T12:01:11;1.67;;;0.80;;
21567;SDS011;10944;42.590;12.630;2023-04-15T12:03:38;1.20;;;0.55;;
21567;SDS011;10944;42.590;12.630;2023-04-15T12:06:18;0.80;;;0.40;;
21567;SDS011;10944;42.590;12.630;2023-04-15T12:13:59;1.05;;;0.40;;
21567;SDS011;10944;42.590;12.630;2023-04-15T12:16:27;0.50;;;0.32;;
21567;SDS011;10944;42.590;12.630;2023-04-15T12:18:53;0.70;;;0.40;;
21567;SDS011;10944;42.590;12.630;2023-04-15T12:21:25;1.50;;;0.70;;
21567;SDS011;10944;42.590;12.630;2023-04-15T12:23:55;0.88;;;0.50;;
21567;SDS011;10944;42.590;12.630;2023-04-15T12:26:24;0.90;;;0.50;;
21567;SDS011;10944;42.590;12.630;2023-04-15T12:29:08;0.88;;;0.43;;
21567;SDS011;10944;42.590;12.630;2023-04-15T12:31:35;0.63;;;0.50;;
21567;SDS011;10944;42.590;12.630;2023-04-15T12:34:01;0.90;;;0.50;;
21567;SDS011;10944;42.590;12.630;2023-04-15T12:36:29;1.33;;;0.70;;
21567;SDS011;10944;42.590;12.630;2023-04-15T12:39:00;1.08;;;0.60;;
21567;SDS011;10944;42.590;12.630;2023-04-15T12:41:27;1.33;;;0.60;;
21567;SDS011;10944;42.590;12.630;2023-04-15T12:43:53;1.25;;;0.60;;
21567;SDS011;10944;42.590;12.630;2023-04-15T12:46:18;1.00;;;0.60;;
21567;SDS011;10944;42.590;12.630;2023-04-15T12:48:44;1.35;;;0.60;;
21567;SDS011;10944;42.590;12.630;2023-04-15T12:51:10;0.77;;;0.40;;
21567;SDS011;10944;42.590;12.630;2023-04-15T12:53:36;1.30;;;0.50;;
21567;SDS011;10944;42.590;12.630;2023-04-15T12:56:01;1.13;;;0.40;;
21567;SDS011;10944;42.590;12.630;2023-04-15T12:58:27;1.50;;;0.55;;
21567;SDS011;10944;42.590;12.630;2023-04-15T13:00:53;1.65;;;0.60;;
21567;SDS011;10944;42.590;12.630;2023-04-15T13:03:19;1.27;;;0.60;;
21567;SDS011;10944;42.590;12.630;2023-04-15T13:05:44;1.38;;;0.70;;
21567;SDS011;10944;42.590;12.630;2023-04-15T13:08:10;1.38;;;0.60;;
21567;SDS011;10944;42.590;12.630;2023-04-15T13:10:36;2.00;;;0.70;;
21567;SDS011;10944;42.590;12.630;2023-04-15T13:13:02;1.40;;;0.60;;
21567;SDS011;10944;42.590;12.630;2023-04-15T13:15:28;1.88;;;0.70;;
21567;SDS011;10944;42.590;12.630;2023-04-15T13:17:54;3.63;;;0.60;;
21567;SDS011;10944;42.590;12.630;2023-04-15T13:20:19;0.68;;;0.43;;
21567;SDS011;10944;42.590;12.630;2023-04-15T13:22:46;0.95;;;0.50;;
21567;SDS011;10944;42.590;12.630;2023-04-15T13:25:11;1.88;;;0.63;;
21567;SDS011;10944;42.590;12.630;2023-04-15T13:27:37;1.05;;;0.40;;
21567;SDS011;10944;42.590;12.630;2023-04-15T13:30:03;1.10;;;0.32;;
21567;SDS011;10944;42.590;12.630;2023-04-15T13:32:30;0.47;;;0.32;;
21567;SDS011;10944;42.590;12.630;2023-04-15T13:34:55;1.02;;;0.43;;
21567;SDS011;10944;42.590;12.630;2023-04-15T13:37:25;0.65;;;0.40;;
21567;SDS011;10944;42.590;12.630;2023-04-15T13:39:52;1.23;;;0.32;;
21567;SDS011;10944;42.590;12.630;2023-04-15T13:42:18;0.90;;;0.50;;
21567;SDS011;10944;42.590;12.630;2023-04-15T13:44:44;0.70;;;0.40;;
21567;SDS011;10944;42.590;12.630;2023-04-15T13:47:09;0.50;;;0.30;;
21567;SDS011;10944;42.590;12.630;2023-04-15T13:49:35;0.68;;;0.40;;
21567;SDS011;10944;42.590;12.630;2023-04-15T13:52:01;0.60;;;0.40;;
21567;SDS011;10944;42.590;12.630;2023-04-15T13:54:26;1.65;;;0.35;;
21567;SDS011;10944;42.590;12.630;2023-04-15T13:56:53;0.93;;;0.43;;
21567;SDS011;10944;42.590;12.630;2023-04-15T13:59:20;0.93;;;0.50;;
21567;SDS011;10944;42.590;12.630;2023-04-15T14:01:46;1.15;;;0.50;;
21567;SDS011;10944;42.590;12.630;2023-04-15T14:04:12;1.05;;;0.45;;
21567;SDS011;10944;42.590;12.630;2023-04-15T14:06:38;1.35;;;0.50;;
21567;SDS011;10944;42.590;12.630;2023-04-15T14:09:03;1.08;;;0.40;;
21567;SDS011;10944;42.590;12.630;2023-04-15T14:11:29;0.80;;;0.40;;
21567;SDS011;10944;42.590;12.630;2023-04-15T14:13:55;1.60;;;0.50;;
21567;SDS011;10944;42.590;12.630;2023-04-15T14:16:21;1.55;;;0.68;;
21567;SDS011;10944;42.590;12.630;2023-04-15T14:18:47;1.75;;;0.50;;
21567;SDS011;10944;42.590;12.630;2023-04-15T14:21:12;1.35;;;0.60;;
21567;SDS011;10944;42.590;12.630;2023-04-15T14:23:38;2.55;;;0.80;;
21567;SDS011;10944;42.590;12.630;2023-04-15T14:26:05;1.20;;;0.70;;
21567;SDS011;10944;42.590;12.630;2023-04-15T14:28:31;3.22;;;1.40;;
21567;SDS011;10944;42.590;12.630;2023-04-15T14:30:56;1.88;;;1.00;;
21567;SDS011;10944;42.590;12.630;2023-04-15T14:33:22;3.38;;;0.90;;
21567;SDS011;10944;42.590;12.630;2023-04-15T14:35:48;1.17;;;0.60;;
21567;SDS011;10944;42.590;12.630;2023-04-15T14:38:15;1.73;;;0.50;;
21567;SDS011;10944;42.590;12.630;2023-04-15T14:40:41;1.25;;;0.47;;
21567;SDS011;10944;42.590;12.630;2023-04-15T14:43:06;0.85;;;0.40;;